Time;durP1;ratioP1;P1;durP2;ratioP2;P2;SDS_P1;SDS_P2;PMS_P1;PMS_P2;Temp;Humidity;BMP_temperature;BMP_pressure;BME280_temperature;BME280_humidity;BME280_pressure;Samples;Min_cycle;Max_cycle;Signal;HPM_P1;HPM_P2
2021/03/12 00:02:02;;;;;;;51.65;31.33;;;;;;;10.43;62.22;100349.78;5111990;28;20048;-77
2021/03/12 00:05:08;;;;;;;50.65;31.38;;;;;;;10.39;62.75;100355.53;5099759;28;20036;-76
2021/03/12 00:08:13;;;;;;;47.03;29.70;;;;;;;10.30;63.40;100365.22;5107065;28;20036;-76
2021/03/12 00:11:20;;;;;;;49.03;31.05;;;;;;;10.41;62.47;100362.47;5110535;28;20032;-75
2021/03/12 00:14:25;;;;;;;45.00;29.85;;;;;;;10.40;62.25;100365.28;5112451;28;20394;-75
2021/03/12 00:17:29;;;;;;;47.55;30.90;;;;;;;10.37;62.39;100371.75;5086912;28;20039;-77
2021/03/12 00:20:36;;;;;;;45.40;29.75;;;;;;;10.38;62.53;100383.34;5097019;28;20035;-76
2021/03/12 00:23:41;;;;;;;48.42;29.77;;;;;;;10.37;62.63;100400.41;5098851;28;20494;-74
2021/03/12 00:26:45;;;;;;;48.55;29.85;;;;;;;10.41;62.38;100405.41;5112517;28;20043;-78
2021/03/12 00:29:49;;;;;;;45.63;29.98;;;;;;;10.38;63.01;100411.03;5096362;28;20403;-76
2021/03/12 00:32:54;;;;;;;46.60;31.05;;;;;;;10.40;63.23;100416.25;5100421;28;20039;-77
2021/03/12 00:35:58;;;;;;;48.97;31.67;;;;;;;10.37;62.66;100414.69;5094147;28;20483;-78
2021/03/12 00:39:03;;;;;;;52.60;32.50;;;;;;;10.40;62.52;100413.56;5101688;28;20411;-76
2021/03/12 00:42:08;;;;;;;49.88;32.28;;;;;;;10.41;61.77;100418.81;5098790;28;20391;-76
2021/03/12 00:45:20;;;;;;;46.08;31.58;;;;;;;10.48;62.27;100437.06;5114020;28;20035;-76
2021/03/12 00:48:28;;;;;;;49.10;31.73;;;;;;;10.43;62.24;100418.69;5103935;28;20031;-76
2021/03/12 00:51:39;;;;;;;50.15;31.83;;;;;;;10.36;62.88;100428.25;5114149;28;20040;-76
2021/03/12 00:54:54;;;;;;;47.58;31.33;;;;;;;10.42;62.90;100433.06;5100433;28;20044;-77
2021/03/12 00:58:23;;;;;;;53.70;33.00;;;;;;;10.30;63.71;100423.38;5100572;28;20402;-76
2021/03/12 01:01:32;;;;;;;49.05;31.35;;;;;;;10.38;62.90;100411.03;5099612;28;20040;-76
2021/03/12 01:04:37;;;;;;;48.05;31.00;;;;;;;10.37;63.02;100416.50;5113318;28;20065;-79
2021/03/12 01:07:48;;;;;;;54.53;32.85;;;;;;;10.32;63.30;100418.78;5103505;28;20402;-77
2021/03/12 01:10:56;;;;;;;56.10;30.35;;;;;;;10.34;63.69;100406.06;5100562;28;20036;-76
2021/03/12 01:14:04;;;;;;;46.83;31.88;;;;;;;10.31;64.07;100415.22;5078459;28;20421;-75
2021/03/12 01:17:14;;;;;;;48.72;32.33;;;;;;;10.33;63.64;100394.47;5099569;28;20031;-77
2021/03/12 01:20:30;;;;;;;53.13;31.08;;;;;;;10.28;64.18;100398.53;5086225;28;20032;-77
2021/03/12 01:23:35;;;;;;;43.85;30.45;;;;;;;10.26;64.42;100411.22;5088208;28;20043;-78
2021/03/12 01:26:39;;;;;;;46.60;32.42;;;;;;;10.23;64.79;100401.59;5089266;28;20044;-79
2021/03/12 01:29:48;;;;;;;47.45;32.10;;;;;;;10.27;64.97;100408.41;5091449;28;20036;-77
2021/03/12 01:33:00;;;;;;;44.53;29.77;;;;;;;10.17;65.29;100395.94;5113530;28;20044;-75
2021/03/12 01:36:04;;;;;;;50.20;32.08;;;;;;;10.17;65.21;100398.63;5101894;28;20399;-76
2021/03/12 01:39:23;;;;;;;49.88;32.78;;;;;;;10.24;65.28;100389.06;5101783;28;20039;-76
2021/03/12 01:42:30;;;;;;;47.80;33.75;;;;;;;10.29;65.15;100394.88;5096681;28;20035;-80
2021/03/12 01:45:46;;;;;;;55.30;35.55;;;;;;;10.22;66.21;100361.53;5099103;28;20032;-77
2021/03/12 01:48:51;;;;;;;55.17;36.38;;;;;;;10.16;67.25;100354.84;5098116;28;20043;-79
2021/03/12 01:51:56;;;;;;;51.03;37.63;;;;;;;10.06;67.51;100343.16;5099432;28;20398;-77
2021/03/12 01:55:01;;;;;;;63.90;38.97;;;;;;;10.01;68.10;100350.75;5100906;28;20043;-76
2021/03/12 01:58:08;;;;;;;55.28;39.22;;;;;;;9.95;68.69;100335.19;5102779;28;20043;-76
2021/03/12 02:01:19;;;;;;;52.13;39.03;;;;;;;9.86;69.24;100337.78;5099924;28;20493;-75
2021/03/12 02:04:31;;;;;;;55.03;39.55;;;;;;;9.83;69.46;100329.03;5097508;28;20047;-77
2021/03/12 02:07:43;;;;;;;56.53;40.17;;;;;;;9.78;70.08;100335.75;5095256;28;20050;-77
2021/03/12 02:11:05;;;;;;;59.00;41.90;;;;;;;9.74;70.02;100337.88;5102111;28;20046;-75
2021/03/12 02:14:41;;;;;;;52.65;39.72;;;;;;;9.64;70.58;100341.44;5109730;28;20066;-77
2021/03/12 02:17:55;;;;;;;59.10;40.97;;;;;;;9.67;70.69;100335.84;5089347;28;20498;-77
2021/03/12 02:21:14;;;;;;;62.15;40.53;;;;;;;9.62;70.94;100313.94;5099546;28;20497;-77
2021/03/12 02:24:37;;;;;;;63.22;40.97;;;;;;;9.53;71.13;100315.53;5098555;28;20042;-77
2021/03/12 02:27:48;;;;;;;59.08;40.67;;;;;;;9.50;71.73;100309.63;5101317;28;20403;-78
2021/03/12 02:30:54;;;;;;;60.45;43.15;;;;;;;9.47;71.71;100316.06;5109984;28;20042;-79
2021/03/12 02:34:00;;;;;;;65.07;45.15;;;;;;;9.37;72.21;100315.16;5087319;28;20054;-76
2021/03/12 02:37:07;;;;;;;62.33;45.15;;;;;;;9.32;72.29;100316.50;5100666;28;20066;-76
2021/03/12 02:40:15;;;;;;;62.60;42.90;;;;;;;9.35;72.38;100306.41;5097939;28;20042;-77
2021/03/12 02:43:32;;;;;;;57.35;42.67;;;;;;;9.22;72.88;100289.63;5101705;28;20109;-75
2021/03/12 02:46:38;;;;;;;58.05;43.33;;;;;;;9.21;73.04;100298.63;5086871;28;20035;-76
2021/03/12 02:49:46;;;;;;;62.80;44.22;;;;;;;9.17;73.14;100294.53;5091865;28;20039;-76
2021/03/12 02:52:52;;;;;;;62.80;45.03;;;;;;;9.07;73.38;100290.91;5087535;28;20048;-76
2021/03/12 02:56:01;;;;;;;63.75;44.65;;;;;;;9.01;73.81;100291.44;5090761;28;20043;-76
2021/03/12 02:59:11;;;;;;;57.88;42.97;;;;;;;8.99;73.98;100290.69;5093142;28;20035;-78
2021/03/12 03:02:54;;;;;;;;;;;;;;;8.91;74.25;100279.78;5059266;28;20052;-78
2021/03/12 03:06:19;;;;;;;61.35;44.30;;;;;;;8.93;73.81;100275.13;5059988;28;19917;-76
2021/03/12 03:09:25;;;;;;;63.40;43.92;;;;;;;8.95;73.87;100271.34;5050088;28;20048;-76
2021/03/12 03:12:29;;;;;;;61.03;43.58;;;;;;;8.89;74.04;100273.66;5048497;28;20611;-77
2021/03/12 03:15:36;;;;;;;62.78;45.38;;;;;;;8.79;73.92;100270.06;5047334;28;20169;-78
2021/03/12 03:18:45;;;;;;;65.10;45.78;;;;;;;8.70;74.46;100271.66;5049663;28;20551;-77
2021/03/12 03:21:51;;;;;;;63.60;44.17;;;;;;;8.71;74.76;100277.88;5046384;28;20424;-75
2021/03/12 03:24:56;;;;;;;61.03;45.47;;;;;;;8.66;75.13;100277.38;5047509;28;20132;-78
2021/03/12 03:28:01;;;;;;;68.13;45.85;;;;;;;8.66;74.93;100285.41;5049094;28;20048;-76
2021/03/12 03:31:05;;;;;;;60.85;45.85;;;;;;;8.54;75.20;100273.03;5049894;28;20666;-76
2021/03/12 03:34:10;;;;;;;63.67;45.67;;;;;;;8.48;75.37;100272.56;5084089;28;20498;-77
2021/03/12 03:37:14;;;;;;;59.85;44.35;;;;;;;8.43;75.43;100264.03;5088051;28;20055;-78
2021/03/12 03:40:21;;;;;;;65.97;46.45;;;;;;;8.39;75.70;100269.75;5089860;28;20118;-77
2021/03/12 03:43:28;;;;;;;66.65;45.42;;;;;;;8.34;75.91;100270.13;5091013;28;20055;-77
2021/03/12 03:46:37;;;;;;;62.13;46.72;;;;;;;8.29;76.08;100275.00;5087303;28;20043;-76
2021/03/12 03:49:43;;;;;;;63.47;45.97;;;;;;;8.28;76.13;100275.09;5089696;28;20055;-77
2021/03/12 03:52:49;;;;;;;62.03;43.83;;;;;;;8.27;76.27;100276.91;5091537;28;20043;-77
2021/03/12 03:55:59;;;;;;;62.25;44.53;;;;;;;8.19;76.23;100279.34;5088292;28;20391;-76
2021/03/12 03:59:06;;;;;;;64.45;46.50;;;;;;;8.13;76.19;100284.31;5090511;28;20039;-77
2021/03/12 04:02:14;;;;;;;65.28;45.45;;;;;;;8.11;76.35;100291.59;5086935;28;20059;-77
2021/03/12 04:05:20;;;;;;;64.88;45.08;;;;;;;8.08;76.40;100294.50;5079392;28;20055;-77
2021/03/12 04:08:32;;;;;;;59.65;45.78;;;;;;;8.08;76.58;100292.69;5080501;28;20386;-77
2021/03/12 04:11:38;;;;;;;56.80;42.70;;;;;;;7.96;76.95;100308.84;5081516;28;20051;-78
2021/03/12 04:14:48;;;;;;;67.70;47.55;;;;;;;7.99;76.92;100319.28;5094909;28;20043;-77
2021/03/12 04:17:54;;;;;;;67.90;46.40;;;;;;;7.97;77.04;100318.56;5090980;28;20533;-77
2021/03/12 04:21:00;;;;;;;61.55;45.33;;;;;;;7.90;77.29;100307.47;5093546;28;20036;-77
2021/03/12 04:24:06;;;;;;;58.65;45.70;;;;;;;7.84;77.55;100313.31;5082662;28;20525;-77
2021/03/12 04:27:12;;;;;;;64.30;47.72;;;;;;;7.75;77.59;100306.84;5096332;28;20039;-77
2021/03/12 04:30:18;;;;;;;64.43;47.83;;;;;;;7.75;77.78;100316.72;5092875;28;20047;-76
2021/03/12 04:33:22;;;;;;;63.60;48.15;;;;;;;7.70;77.88;100308.19;5093247;28;20098;-76
2021/03/12 04:36:33;;;;;;;65.30;49.20;;;;;;;7.62;78.11;100313.25;5090424;28;20051;-77
2021/03/12 04:39:42;;;;;;;69.28;50.67;;;;;;;7.60;78.15;100315.19;5093074;28;20047;-76
2021/03/12 04:42:49;;;;;;;70.25;50.85;;;;;;;7.45;78.35;100317.22;5094852;28;20043;-77
2021/03/12 04:45:55;;;;;;;69.78;51.30;;;;;;;7.32;78.73;100315.56;5090934;28;20494;-78
2021/03/12 04:49:01;;;;;;;72.72;51.20;;;;;;;7.31;78.78;100319.22;5082747;28;20047;-76
2021/03/12 04:52:06;;;;;;;73.40;50.53;;;;;;;7.22;78.79;100318.94;5094694;28;20055;-76
2021/03/12 04:55:12;;;;;;;68.90;49.95;;;;;;;7.31;78.42;100313.88;5095169;28;20047;-76
2021/03/12 04:58:18;;;;;;;72.82;50.30;;;;;;;7.26;78.33;100306.19;5091884;28;20047;-76
2021/03/12 05:01:23;;;;;;;74.88;51.63;;;;;;;7.20;78.05;100312.00;5093595;28;20102;-76
2021/03/12 05:04:28;;;;;;;75.57;49.22;;;;;;;7.06;78.33;100309.53;5087220;28;20147;-77
2021/03/12 05:07:37;;;;;;;66.93;49.35;;;;;;;7.12;78.70;100315.25;5082856;28;20510;-76
2021/03/12 05:11:04;;;;;;;77.22;50.03;;;;;;;7.17;78.17;100318.44;5090657;28;20055;-77
2021/03/12 05:14:23;;;;;;;69.30;50.22;;;;;;;7.21;78.88;100327.03;5097876;28;20047;-78
2021/03/12 05:17:27;;;;;;;67.72;49.75;;;;;;;7.13;77.96;100319.59;5093721;28;20510;-74
2021/03/12 05:20:33;;;;;;;72.47;52.58;;;;;;;6.99;78.91;100314.44;5089368;28;20047;-75
2021/03/12 05:23:37;;;;;;;72.18;50.20;;;;;;;7.02;78.64;100308.88;5090718;28;20509;-76
2021/03/12 05:26:42;;;;;;;67.97;50.70;;;;;;;6.99;78.82;100318.91;5080168;28;20050;-75
2021/03/12 05:29:50;;;;;;;73.57;52.15;;;;;;;6.98;79.04;100317.22;5093814;28;20047;-76
2021/03/12 05:32:54;;;;;;;67.90;51.20;;;;;;;6.99;79.23;100317.09;5084475;28;20040;-75
2021/03/12 05:35:59;;;;;;;73.40;51.78;;;;;;;7.05;78.82;100318.47;5090467;28;20101;-77
2021/03/12 05:39:07;;;;;;;73.97;49.75;;;;;;;7.03;79.10;100313.25;5080236;28;20051;-76
2021/03/12 05:42:13;;;;;;;67.32;47.65;;;;;;;7.03;78.83;100317.75;5094013;28;20044;-78
2021/03/12 05:45:22;;;;;;;68.68;48.10;;;;;;;7.16;78.85;100326.53;5090881;28;20043;-77
2021/03/12 05:48:41;;;;;;;70.80;48.42;;;;;;;7.18;78.46;100314.78;5095859;28;20047;-78
2021/03/12 05:51:45;;;;;;;63.58;45.63;;;;;;;7.25;77.53;100303.66;5102628;28;20051;-77
2021/03/12 05:54:51;;;;;;;70.35;46.17;;;;;;;7.17;77.87;100307.75;5096657;28;20047;-77
2021/03/12 05:57:56;;;;;;;73.40;46.35;;;;;;;7.31;77.54;100320.03;5110483;28;20042;-77
2021/03/12 06:01:00;;;;;;;66.63;44.30;;;;;;;7.40;77.44;100324.72;5099152;28;20043;-78
2021/03/12 06:04:05;;;;;;;126.25;86.47;;;;;;;7.57;77.04;100318.09;5099829;28;20074;-77
2021/03/12 06:07:13;;;;;;;72.65;52.08;;;;;;;7.77;76.25;100326.31;5100833;28;20470;-76
2021/03/12 06:10:18;;;;;;;62.83;44.63;;;;;;;7.91;75.85;100324.38;5097983;28;20387;-77
2021/03/12 06:13:23;;;;;;;67.45;45.80;;;;;;;7.97;75.37;100324.78;5099108;28;20046;-76
2021/03/12 06:16:30;;;;;;;59.92;44.58;;;;;;;8.06;74.93;100315.16;5088524;28;20043;-76
2021/03/12 06:19:55;;;;;;;62.08;44.67;;;;;;;8.12;74.17;100312.84;5097541;28;20420;-79
2021/03/12 06:23:01;;;;;;;65.63;44.20;;;;;;;8.25;73.92;100323.44;5086392;28;20055;-74
2021/03/12 06:26:06;;;;;;;59.10;43.75;;;;;;;8.23;74.18;100326.25;5111931;28;20042;-76
2021/03/12 06:29:36;;;;;;;64.15;42.88;;;;;;;8.63;72.83;100329.31;5098329;28;20043;-76
2021/03/12 06:32:59;;;;;;;58.67;40.53;;;;;;;9.16;71.23;100336.50;5100644;28;20047;-78
2021/03/12 06:36:29;;;;;;;58.72;42.13;;;;;;;9.69;69.24;100324.00;5095723;28;20509;-75
2021/03/12 06:40:25;;;;;;;56.47;39.95;;;;;;;10.77;65.70;100331.53;5011609;28;20057;-75
2021/03/12 06:43:37;;;;;;;58.42;40.40;;;;;;;11.59;63.31;100326.72;5007465;28;20037;-78
2021/03/12 06:46:45;;;;;;;59.13;40.22;;;;;;;11.79;61.64;100323.06;5003517;28;20042;-76
2021/03/12 06:49:58;;;;;;;53.72;37.20;;;;;;;11.88;61.69;100324.88;5001710;28;20046;-76
2021/03/12 06:53:41;;;;;;;51.75;39.05;;;;;;;11.74;62.16;100317.25;4953926;29;20039;-78
2021/03/12 06:56:46;;;;;;;54.55;39.55;;;;;;;12.03;61.40;100328.81;4954052;29;20059;-77
2021/03/12 06:59:59;;;;;;;56.83;40.08;;;;;;;12.20;60.46;100333.47;4942903;29;20072;-76
2021/03/12 07:03:28;;;;;;;59.00;39.63;;;;;;;12.44;60.19;100343.75;4935176;29;20040;-76
2021/03/12 07:06:59;;;;;;;60.95;38.05;;;;;;;12.54;60.09;100346.41;4946964;29;20039;-78
2021/03/12 07:10:09;;;;;;;48.08;35.72;;;;;;;12.60;60.04;100360.13;4942727;29;20044;-76
2021/03/12 07:13:27;;;;;;;48.53;34.95;;;;;;;12.90;58.98;100359.00;4925843;29;20048;-80
2021/03/12 07:16:40;;;;;;;54.83;35.88;;;;;;;13.20;57.34;100353.34;4980206;28;20526;-83
2021/03/12 07:19:47;;;;;;;48.97;34.17;;;;;;;14.76;52.21;100339.94;4983802;28;20047;-77
2021/03/12 07:22:54;;;;;;;54.63;33.72;;;;;;;15.15;50.94;100343.81;5001955;28;20046;-77
2021/03/12 07:25:59;;;;;;;49.20;34.75;;;;;;;14.42;52.61;100352.59;5004783;28;20058;-77
2021/03/12 07:29:06;;;;;;;51.33;35.83;;;;;;;13.83;54.54;100350.56;5017999;28;20041;-80
2021/03/12 07:32:25;;;;;;;54.17;36.28;;;;;;;13.77;54.79;100357.47;5050530;28;20046;-81
2021/03/12 07:35:34;;;;;;;52.97;38.22;;;;;;;13.72;54.80;100353.53;5047952;28;20045;-83
2021/03/12 07:39:01;;;;;;;56.47;37.92;;;;;;;14.59;53.93;100357.91;5053504;28;20053;-79
2021/03/12 07:42:08;;;;;;;53.75;37.28;;;;;;;18.33;44.20;100353.41;5053865;28;20372;-81
2021/03/12 07:45:42;;;;;;;52.00;36.33;;;;;;;22.16;35.51;100360.00;5048220;28;20061;-80
2021/03/12 07:48:49;;;;;;;52.20;36.47;;;;;;;23.38;33.25;100349.31;5059120;28;20052;-80
2021/03/12 07:52:05;;;;;;;51.20;37.05;;;;;;;22.66;34.39;100364.00;5060926;28;20040;-75
2021/03/12 07:55:11;;;;;;;48.22;36.05;;;;;;;23.76;31.95;100350.97;5074141;28;20040;-78
2021/03/12 07:58:50;;;;;;;50.08;40.15;;;;;;;26.52;27.77;100356.94;5068345;28;20430;-78
2021/03/12 08:01:56;;;;;;;52.90;37.92;;;;;;;27.80;26.47;100356.78;5080828;28;20032;-81
2021/03/12 08:05:40;;;;;;;48.13;38.67;;;;;;;30.38;22.76;100351.94;5093183;28;20044;-78
2021/03/12 08:08:51;;;;;;;47.28;37.40;;;;;;;33.69;19.61;100346.53;5080459;28;20403;-82
2021/03/12 08:11:59;;;;;;;45.15;35.25;;;;;;;36.58;17.91;100346.72;5092888;28;20036;-77
2021/03/12 08:15:34;;;;;;;38.22;34.03;;;;;;;37.12;17.29;100344.03;5091593;28;20048;-79
2021/03/12 08:18:51;;;;;;;40.60;35.13;;;;;;;38.12;16.64;100342.97;5071160;28;20047;-79
2021/03/12 08:22:28;;;;;;;40.15;33.25;;;;;;;38.21;16.12;100340.25;5078819;28;20037;-80
2021/03/12 08:25:55;;;;;;;36.15;31.77;;;;;;;38.56;15.79;100342.19;5072542;28;20049;-80
2021/03/12 08:29:43;;;;;;;38.58;31.00;;;;;;;36.99;17.46;100344.84;5060425;28;20037;-78
2021/03/12 08:32:51;;;;;;;40.30;31.35;;;;;;;36.45;17.72;100337.09;5060634;28;20044;-77
2021/03/12 08:36:27;;;;;;;40.05;31.65;;;;;;;36.54;17.66;100337.28;5060137;28;20044;-77
2021/03/12 08:39:49;;;;;;;32.72;29.08;;;;;;;36.52;17.45;100336.72;5072369;28;20483;-79
2021/03/12 08:43:16;;;;;;;38.03;30.45;;;;;;;37.22;17.72;100333.75;5072088;28;20044;-79
2021/03/12 08:46:38;;;;;;;33.40;28.10;;;;;;;37.33;16.75;100322.06;5059884;28;20404;-81
2021/03/12 08:49:42;;;;;;;33.10;25.70;;;;;;;35.94;18.60;100325.06;5048327;28;20052;-79
2021/03/12 08:52:48;;;;;;;24.83;21.92;;;;;;;34.22;19.42;100322.53;5064073;28;20041;-77
2021/03/12 08:56:09;;;;;;;27.88;23.25;;;;;;;32.77;21.05;100329.28;5063688;28;20044;-79
2021/03/12 08:59:28;;;;;;;33.33;24.10;;;;;;;31.30;22.51;100329.28;5063945;28;20037;-76
2021/03/12 09:03:24;;;;;;;29.30;23.50;;;;;;;31.40;22.78;100327.41;5103379;28;20040;-77
2021/03/12 09:07:03;;;;;;;36.15;23.90;;;;;;;29.56;24.82;100324.50;5106704;28;20048;-83
2021/03/12 09:10:41;;;;;;;34.92;23.77;;;;;;;27.48;27.95;100326.91;5033550;28;20061;-75
2021/03/12 09:14:05;;;;;;;27.48;21.65;;;;;;;27.14;28.28;100327.81;5033728;28;20057;-77
2021/03/12 09:17:10;;;;;;;36.75;24.67;;;;;;;27.07;28.30;100322.47;5013638;28;20057;-75
2021/03/12 09:20:22;;;;;;;32.85;23.95;;;;;;;27.77;27.22;100309.28;5013658;28;20046;-75
2021/03/12 09:23:46;;;;;;;35.78;25.35;;;;;;;28.86;25.77;100305.03;5003009;28;20041;-75
2021/03/12 09:26:51;;;;;;;35.58;26.48;;;;;;;27.36;27.70;100309.53;5001969;28;20045;-77
2021/03/12 09:30:06;;;;;;;37.72;28.80;;;;;;;27.47;28.29;100307.88;5013504;28;20050;-75
2021/03/12 09:33:31;;;;;;;40.78;28.00;;;;;;;24.02;32.42;100299.78;5001993;28;20485;-74
2021/03/12 09:36:47;;;;;;;46.13;24.90;;;;;;;21.67;36.45;100313.00;5001532;28;20042;-76
2021/03/12 09:40:39;;;;;;;31.77;27.83;;;;;;;20.48;39.80;100310.75;5012854;28;20042;-76
2021/03/12 09:44:12;;;;;;;39.42;27.95;;;;;;;20.09;40.97;100331.22;5001983;28;20046;-75
2021/03/12 09:47:23;;;;;;;40.55;29.77;;;;;;;19.92;41.41;100318.88;5082836;28;20048;-75
2021/03/12 09:50:36;;;;;;;39.17;29.77;;;;;;;19.56;42.78;100311.81;5053614;28;20041;-76
2021/03/12 09:53:48;;;;;;;41.17;29.58;;;;;;;18.90;44.17;100307.44;5043274;28;20044;-75
2021/03/12 09:57:01;;;;;;;46.47;32.28;;;;;;;18.38;45.64;100323.81;5053589;28;20037;-76
2021/03/12 10:00:08;;;;;;;41.33;31.80;;;;;;;17.68;47.99;100321.34;5053960;28;20496;-74
2021/03/12 10:03:29;;;;;;;46.22;36.13;;;;;;;17.28;50.33;100324.31;5053732;28;20044;-77
2021/03/12 10:07:00;;;;;;;48.70;35.42;;;;;;;17.45;49.34;100315.88;5060850;28;20044;-76
2021/03/12 10:10:35;;;;;;;45.80;33.97;;;;;;;17.35;50.33;100309.03;5053472;28;20041;-74
2021/03/12 10:13:41;;;;;;;46.65;34.13;;;;;;;17.43;49.76;100292.69;5001846;28;20062;-76
2021/03/12 10:17:26;;;;;;;45.30;32.35;;;;;;;16.96;50.82;100300.09;5013972;28;20045;-75
2021/03/12 10:20:34;;;;;;;42.20;30.88;;;;;;;16.59;51.81;100296.16;5000474;28;20034;-76
2021/03/12 10:23:39;;;;;;;49.65;32.20;;;;;;;16.69;51.31;100306.81;5012642;28;20405;-75
2021/03/12 10:26:43;;;;;;;38.97;29.60;;;;;;;16.75;51.23;100295.25;4995125;28;20053;-75
2021/03/12 10:29:48;;;;;;;32.22;23.45;;;;;;;16.58;50.63;100289.06;5012586;28;20045;-76
2021/03/12 10:32:55;;;;;;;36.78;25.73;;;;;;;16.06;51.63;100288.63;5012784;28;20449;-77
2021/03/12 10:36:05;;;;;;;40.70;29.75;;;;;;;15.94;52.72;100287.31;5001011;28;20045;-75
2021/03/12 10:39:09;;;;;;;37.55;27.23;;;;;;;15.93;53.02;100282.91;5012453;28;20046;-75
2021/03/12 10:42:15;;;;;;;37.90;25.60;;;;;;;16.02;52.00;100275.63;5012443;28;20054;-75
2021/03/12 10:45:29;;;;;;;45.70;29.63;;;;;;;16.02;52.86;100276.44;5012268;28;20046;-74
2021/03/12 10:48:41;;;;;;;39.00;29.95;;;;;;;15.98;53.33;100266.97;5022113;28;20049;-76
2021/03/12 10:51:46;;;;;;;43.37;30.10;;;;;;;15.87;53.88;100270.06;5093223;28;20399;-75
2021/03/12 10:54:51;;;;;;;40.85;30.95;;;;;;;15.98;53.13;100258.00;5092749;28;20036;-75
2021/03/12 10:57:59;;;;;;;46.15;31.02;;;;;;;16.35;53.34;100249.28;5093850;28;20040;-75
2021/03/12 11:01:26;;;;;;;46.13;34.15;;;;;;;16.31;53.02;100248.81;5093884;28;20044;-76
2021/03/12 11:04:31;;;;;;;53.85;33.83;;;;;;;16.07;53.39;100246.16;5093317;28;20044;-75
2021/03/12 11:07:36;;;;;;;45.15;34.22;;;;;;;16.07;54.03;100241.56;5093808;28;20060;-76
2021/03/12 11:10:41;;;;;;;40.47;35.05;;;;;;;16.42;53.34;100239.47;5093331;28;20051;-76
2021/03/12 11:13:45;;;;;;;42.35;32.33;;;;;;;16.42;53.61;100223.22;5093260;28;20047;-76
2021/03/12 11:16:50;;;;;;;50.20;33.22;;;;;;;16.42;53.65;100225.91;5093625;28;20111;-75
2021/03/12 11:19:54;;;;;;;45.67;32.08;;;;;;;16.33;53.82;100218.81;5111459;28;20044;-76
2021/03/12 11:23:00;;;;;;;43.22;32.45;;;;;;;16.42;52.63;100212.38;5101515;28;20044;-77
2021/03/12 11:26:06;;;;;;;41.53;33.78;;;;;;;16.44;53.11;100210.34;5113526;28;20482;-75
2021/03/12 11:29:10;;;;;;;47.75;33.55;;;;;;;16.19;54.13;100210.44;5113378;28;20039;-77
2021/03/12 11:32:15;;;;;;;47.92;33.38;;;;;;;16.06;53.74;100203.84;5113401;28;20040;-75
2021/03/12 11:35:19;;;;;;;48.63;33.38;;;;;;;16.19;54.63;100196.88;5113669;28;20044;-75
2021/03/12 11:38:24;;;;;;;45.78;34.35;;;;;;;16.41;53.88;100189.00;5100824;28;20474;-77
2021/03/12 11:41:28;;;;;;;50.88;32.85;;;;;;;16.49;54.01;100197.09;5113490;28;20043;-76
2021/03/12 11:44:32;;;;;;;43.28;31.23;;;;;;;16.27;53.86;100188.72;5113190;28;20031;-77
2021/03/12 11:47:38;;;;;;;46.47;31.48;;;;;;;16.27;53.92;100172.44;5113855;28;20043;-76
2021/03/12 11:50:42;;;;;;;40.78;31.17;;;;;;;16.48;53.74;100180.00;5113176;28;20047;-76
2021/03/12 11:53:46;;;;;;;44.80;31.45;;;;;;;16.70;53.16;100173.81;5113388;28;20040;-77
2021/03/12 11:56:51;;;;;;;48.97;32.42;;;;;;;16.76;53.37;100167.66;5088317;28;20044;-76
2021/03/12 11:59:56;;;;;;;41.65;32.10;;;;;;;16.71;54.18;100158.41;5092567;28;20040;-76
2021/03/12 12:03:01;;;;;;;42.15;30.85;;;;;;;16.89;53.17;100150.81;5099721;28;20036;-75
2021/03/12 12:06:05;;;;;;;41.85;30.58;;;;;;;16.56;53.42;100152.03;5095029;28;20036;-78
2021/03/12 12:09:09;;;;;;;38.67;32.13;;;;;;;16.47;54.44;100158.47;5095869;28;20043;-75
2021/03/12 12:12:14;;;;;;;45.70;32.88;;;;;;;16.55;53.29;100151.19;5072740;28;20040;-76
2021/03/12 12:15:18;;;;;;;50.60;31.30;;;;;;;16.64;53.60;100127.63;5081970;28;20040;-75
2021/03/12 12:18:23;;;;;;;40.90;31.25;;;;;;;16.90;53.85;100109.97;5060199;28;20503;-76
2021/03/12 12:21:29;;;;;;;40.20;30.85;;;;;;;17.04;53.55;100115.59;5072940;28;20049;-77
2021/03/12 12:24:34;;;;;;;37.65;28.88;;;;;;;17.19;52.47;100102.94;5074969;28;20048;-77
2021/03/12 12:27:38;;;;;;;38.60;29.85;;;;;;;16.99;52.83;100097.19;5084267;28;20040;-77
2021/03/12 12:30:43;;;;;;;41.53;30.15;;;;;;;17.06;52.79;100108.97;5075261;28;20064;-77
2021/03/12 12:33:47;;;;;;;39.50;28.17;;;;;;;17.02;52.45;100118.50;5059480;28;20048;-75
2021/03/12 12:36:53;;;;;;;39.03;28.08;;;;;;;17.23;52.38;100102.38;5072322;28;20044;-75
2021/03/12 12:39:58;;;;;;;43.15;30.45;;;;;;;17.16;52.58;100097.91;5072584;28;20040;-77
2021/03/12 12:43:02;;;;;;;41.92;30.73;;;;;;;17.01;53.82;100097.84;5060422;28;20044;-77
2021/03/12 12:46:06;;;;;;;37.15;30.40;;;;;;;17.08;53.44;100087.97;5059971;28;20052;-76
2021/03/12 12:49:12;;;;;;;42.35;29.10;;;;;;;16.96;53.74;100085.88;5074035;28;20048;-77
2021/03/12 12:52:17;;;;;;;37.17;28.27;;;;;;;16.79;53.64;100087.84;5075983;28;20052;-77
2021/03/12 12:55:21;;;;;;;41.33;29.25;;;;;;;16.78;54.12;100084.31;5076156;28;20044;-78
2021/03/12 12:58:25;;;;;;;36.65;28.35;;;;;;;16.68;54.60;100085.56;5075814;28;20212;-77
2021/03/12 13:01:30;;;;;;;37.65;28.70;;;;;;;16.74;53.62;100072.13;5063567;28;20484;-77
2021/03/12 13:04:34;;;;;;;41.28;29.33;;;;;;;16.69;53.88;100066.41;5051713;28;20041;-77
2021/03/12 13:07:39;;;;;;;41.38;29.05;;;;;;;16.80;54.40;100067.84;5075879;28;20408;-77
2021/03/12 13:10:44;;;;;;;40.50;29.48;;;;;;;16.72;54.58;100059.78;5075934;28;20044;-78
2021/03/12 13:13:49;;;;;;;36.65;28.85;;;;;;;16.72;54.70;100060.63;5084652;28;20045;-75
2021/03/12 13:16:57;;;;;;;41.30;30.85;;;;;;;16.77;54.79;100057.38;5082084;28;20044;-73
2021/03/12 13:20:06;;;;;;;44.40;30.48;;;;;;;16.76;54.99;100055.69;5056256;28;20029;-77
2021/03/12 13:23:11;;;;;;;43.28;32.22;;;;;;;16.64;55.60;100043.59;5073976;28;20040;-75
2021/03/12 13:26:17;;;;;;;49.35;31.85;;;;;;;16.42;56.04;100042.50;5095519;28;20044;-74
2021/03/12 13:29:22;;;;;;;43.58;32.75;;;;;;;16.46;56.39;100035.72;5082834;28;20036;-77
2021/03/12 13:32:26;;;;;;;47.08;32.38;;;;;;;16.51;55.71;100037.91;5079989;28;20059;-76
2021/03/12 13:35:31;;;;;;;41.83;31.30;;;;;;;16.65;56.18;100035.28;5062756;28;20392;-76
2021/03/12 13:38:35;;;;;;;40.72;31.85;;;;;;;16.62;55.72;100029.38;5093747;28;20048;-78
2021/03/12 13:41:39;;;;;;;42.38;31.20;;;;;;;16.61;56.81;100033.97;5095321;28;20060;-79
2021/03/12 13:44:43;;;;;;;43.42;32.28;;;;;;;16.77;56.30;100022.97;5094603;28;20064;-78
2021/03/12 13:47:48;;;;;;;38.35;30.65;;;;;;;16.80;56.94;100025.34;5083196;28;20044;-78
2021/03/12 13:50:53;;;;;;;38.05;29.55;;;;;;;16.90;55.72;100022.38;5089684;28;20047;-77
2021/03/12 13:53:57;;;;;;;38.85;29.05;;;;;;;16.95;56.11;100019.09;5092608;28;20047;-78
2021/03/12 13:57:02;;;;;;;41.33;29.50;;;;;;;16.83;56.38;100016.00;5087665;28;20040;-75
2021/03/12 14:00:09;;;;;;;37.45;27.30;;;;;;;16.81;56.04;100013.44;5091766;28;20070;-78
2021/03/12 14:03:19;;;;;;;36.72;27.77;;;;;;;16.84;56.97;100013.09;5086207;28;20044;-75
2021/03/12 14:06:24;;;;;;;35.40;27.05;;;;;;;16.91;57.39;100008.59;5082183;28;20399;-77
2021/03/12 14:09:28;;;;;;;38.95;26.48;;;;;;;16.99;56.20;99999.56;5090511;28;20036;-77
2021/03/12 14:12:32;;;;;;;37.17;27.40;;;;;;;17.01;57.02;100005.63;5102111;28;20059;-78
2021/03/12 14:15:46;;;;;;;37.42;27.20;;;;;;;16.99;56.52;100010.41;5094753;28;20044;-76
2021/03/12 14:18:50;;;;;;;31.67;25.85;;;;;;;16.92;56.43;100009.47;5087404;28;20052;-72
2021/03/12 14:21:55;;;;;;;36.97;27.85;;;;;;;16.89;56.88;99991.69;5087778;28;20044;-75
2021/03/12 14:24:59;;;;;;;43.70;30.65;;;;;;;16.86;57.92;99983.91;5087041;28;20051;-79
2021/03/12 14:28:11;;;;;;;41.13;30.08;;;;;;;16.83;58.23;99972.63;5094763;28;20051;-77
2021/03/12 14:31:16;;;;;;;37.05;26.77;;;;;;;16.77;57.52;99979.59;5062380;28;20423;-79